Time;durP1;ratioP1;P1;durP2;ratioP2;P2;SDS_P1;SDS_P2;PMS_P1;PMS_P2;Temp;Humidity;BMP_temperature;BMP_pressure;BME280_temperature;BME280_humidity;BME280_pressure;Samples;Min_cycle;Max_cycle;Signal;HPM_P1;HPM_P2
2022/12/02 00:00:17;;;;;;;83.10;58.05;;;15.80;65.70;;;;;;4994449;28;88989;-57
2022/12/02 00:02:43;;;;;;;84.43;59.58;;;15.70;65.60;;;;;;4995351;28;92954;-55
2022/12/02 00:05:14;;;;;;;82.80;58.53;;;15.70;65.60;;;;;;4986748;28;90016;-57
2022/12/02 00:07:47;;;;;;;84.63;58.80;;;15.70;65.90;;;;;;4979807;28;91827;-55
2022/12/02 00:10:43;;;;;;;84.28;59.30;;;15.60;66.80;;;;;;4989467;28;89890;-57
2022/12/02 00:13:23;;;;;;;83.35;58.50;;;15.70;66.00;;;;;;4986760;28;90662;-56
2022/12/02 00:15:56;;;;;;;83.40;58.67;;;15.70;66.00;;;;;;4988914;28;90176;-57
2022/12/02 00:18:22;;;;;;;82.65;58.97;;;15.70;65.70;;;;;;4995626;28;90426;-57
2022/12/02 00:20:47;;;;;;;84.78;58.55;;;15.70;65.70;;;;;;4985359;28;95076;-56
2022/12/02 00:23:13;;;;;;;82.57;58.85;;;15.60;65.80;;;;;;4987277;28;90135;-54
2022/12/02 00:25:42;;;;;;;86.07;59.90;;;15.70;65.70;;;;;;4979267;28;91439;-56
2022/12/02 00:28:07;;;;;;;83.72;58.55;;;15.70;65.60;;;;;;4991424;28;90137;-57
2022/12/02 00:30:33;;;;;;;81.18;58.47;;;15.60;65.50;;;;;;4991964;28;90491;-56
2022/12/02 00:32:59;;;;;;;84.32;58.78;;;15.60;65.60;;;;;;4993274;28;90366;-57
2022/12/02 00:35:24;;;;;;;86.55;58.90;;;15.60;65.50;;;;;;4983101;28;90871;-56
2022/12/02 00:37:51;;;;;;;83.80;58.60;;;15.60;65.30;;;;;;4994717;28;89799;-54
2022/12/02 00:40:17;;;;;;;81.30;58.45;;;15.60;65.40;;;;;;4984804;28;90328;-55
2022/12/02 00:42:42;;;;;;;85.70;59.35;;;15.60;65.50;;;;;;4983539;28;90461;-56
2022/12/02 00:47:54;;;;;;;82.88;58.60;;;15.60;65.40;;;;;;4992115;28;90180;-54
2022/12/02 00:50:20;;;;;;;81.97;58.63;;;15.50;65.10;;;;;;4982426;28;90186;-57
2022/12/02 00:52:46;;;;;;;82.43;59.10;;;15.50;65.30;;;;;;4986712;28;90825;-55
2022/12/02 00:55:12;;;;;;;87.18;59.80;;;15.50;65.30;;;;;;4987122;28;89716;-55
2022/12/02 00:57:38;;;;;;;80.70;58.13;;;15.50;65.40;;;;;;4997783;28;90545;-56
2022/12/02 01:00:05;;;;;;;82.05;58.72;;;15.50;65.30;;;;;;4998043;28;89524;-56
2022/12/02 01:02:31;;;;;;;81.88;58.55;;;15.50;65.70;;;;;;4982158;28;89814;-52
2022/12/02 01:04:56;;;;;;;84.28;59.10;;;15.50;65.60;;;;;;4996696;28;90060;-56
2022/12/02 01:07:22;;;;;;;82.72;58.33;;;15.40;65.30;;;;;;4991133;28;91464;-56
2022/12/02 01:09:48;;;;;;;83.88;60.13;;;15.40;65.70;;;;;;4992115;28;89452;-55
2022/12/02 01:12:14;;;;;;;81.63;58.53;;;15.40;65.60;;;;;;4993282;28;89955;-56
2022/12/02 01:14:39;;;;;;;84.13;59.28;;;15.40;65.60;;;;;;4986144;27;90529;-56
2022/12/02 01:17:05;;;;;;;83.43;59.33;;;15.40;65.50;;;;;;4991301;28;89639;-57
2022/12/02 01:19:30;;;;;;;83.78;59.20;;;15.40;65.60;;;;;;4995470;28;89891;-53
2022/12/02 01:21:56;;;;;;;83.10;59.50;;;15.40;65.30;;;;;;4989044;28;90913;-56
2022/12/02 01:24:22;;;;;;;83.28;58.33;;;15.40;65.40;;;;;;4997927;28;90283;-56
2022/12/02 01:26:47;;;;;;;80.10;58.30;;;15.40;65.30;;;;;;4992807;28;89734;-56
2022/12/02 01:29:13;;;;;;;81.72;58.05;;;15.30;65.30;;;;;;4993130;28;89688;-57
2022/12/02 01:31:38;;;;;;;85.55;59.22;;;15.40;65.20;;;;;;4998162;28;89546;-54
2022/12/02 01:34:04;;;;;;;81.68;58.00;;;15.30;65.00;;;;;;4995399;28;89365;-56
2022/12/02 01:36:30;;;;;;;82.68;58.53;;;15.30;65.00;;;;;;4993944;28;89756;-55
2022/12/02 01:38:55;;;;;;;80.85;58.50;;;15.30;65.00;;;;;;4992859;28;90298;-57
2022/12/02 01:41:21;;;;;;;82.70;59.38;;;15.30;65.00;;;;;;4987380;28;90197;-55
2022/12/02 01:43:47;;;;;;;85.97;59.38;;;15.30;65.00;;;;;;4990187;28;89825;-54
2022/12/02 01:46:13;;;;;;;81.60;58.70;;;15.30;65.00;;;;;;4999336;28;90577;-49
2022/12/02 01:48:39;;;;;;;83.25;58.88;;;15.30;65.00;;;;;;4988518;28;90444;-56
2022/12/02 01:51:06;;;;;;;85.20;59.15;;;15.30;64.80;;;;;;4989440;28;89940;-55
2022/12/02 01:53:32;;;;;;;81.60;58.22;;;15.30;64.90;;;;;;4996220;28;89978;-56
2022/12/02 01:55:58;;;;;;;82.63;58.70;;;15.30;64.90;;;;;;4992340;28;90257;-54
2022/12/02 01:58:27;;;;;;;82.72;58.75;;;15.20;64.70;;;;;;4997398;28;90469;-56
2022/12/02 02:00:53;;;;;;;83.43;58.78;;;15.20;65.10;;;;;;4998109;28;91204;-57
2022/12/02 02:03:19;;;;;;;84.60;59.15;;;15.20;65.00;;;;;;4986210;28;88752;-53
2022/12/02 02:05:46;;;;;;;83.53;57.92;;;15.20;65.00;;;;;;4990099;28;90130;-55
2022/12/02 02:08:13;;;;;;;84.07;58.47;;;15.20;65.00;;;;;;4991336;28;89832;-55
2022/12/02 02:10:40;;;;;;;80.65;58.25;;;15.20;65.00;;;;;;4991080;28;90704;-57
2022/12/02 02:13:08;;;;;;;82.47;58.00;;;15.20;65.00;;;;;;4989639;28;90850;-57
2022/12/02 02:15:36;;;;;;;83.57;59.15;;;15.20;64.80;;;;;;4998047;28;89696;-56
2022/12/02 02:18:02;;;;;;;82.40;58.70;;;15.10;64.70;;;;;;4994415;28;89754;-57
2022/12/02 02:20:27;;;;;;;82.72;58.95;;;15.10;64.90;;;;;;4993668;28;89694;-58
2022/12/02 02:23:05;;;;;;;82.03;57.65;;;15.10;64.90;;;;;;5000068;28;89664;-54
2022/12/02 02:25:37;;;;;;;81.63;58.63;;;15.10;64.90;;;;;;4992739;28;89993;-56
2022/12/02 02:28:03;;;;;;;81.63;58.28;;;15.10;64.90;;;;;;4992429;28;88998;-52
2022/12/02 02:30:32;;;;;;;81.45;58.03;;;15.10;64.90;;;;;;4987190;28;89895;-55
2022/12/02 02:33:02;;;;;;;81.15;57.60;;;15.10;64.90;;;;;;4994273;28;89676;-56
2022/12/02 02:35:28;;;;;;;82.22;58.45;;;15.10;64.90;;;;;;4989325;28;91186;-56
2022/12/02 02:37:55;;;;;;;82.10;58.28;;;15.10;64.70;;;;;;4988406;28;89446;-58
2022/12/02 02:40:23;;;;;;;83.95;59.40;;;15.10;64.70;;;;;;4983423;28;92307;-56
2022/12/02 02:42:55;;;;;;;82.88;58.03;;;15.10;64.60;;;;;;4995766;28;90263;-56
2022/12/02 02:45:24;;;;;;;81.72;59.08;;;15.10;64.80;;;;;;4987669;28;89996;-54
2022/12/02 02:47:50;;;;;;;79.95;57.47;;;15.10;64.80;;;;;;4994707;28;90596;-57
2022/12/02 02:50:17;;;;;;;83.38;58.55;;;15.10;64.60;;;;;;4995347;28;91008;-56
2022/12/02 02:52:42;;;;;;;80.68;57.92;;;15.10;64.60;;;;;;4992471;28;88885;-55
2022/12/02 02:55:14;;;;;;;81.53;57.92;;;15.10;64.70;;;;;;4989246;28;89683;-57
2022/12/02 02:57:39;;;;;;;80.88;58.72;;;15.00;64.50;;;;;;4995889;28;90264;-53
2022/12/02 03:00:05;;;;;;;81.28;58.05;;;15.10;64.60;;;;;;4988334;28;90605;-55
2022/12/02 03:02:32;;;;;;;82.50;58.45;;;15.10;64.50;;;;;;4986160;28;89856;-54
2022/12/02 03:04:57;;;;;;;82.28;59.20;;;15.00;64.20;;;;;;4985954;28;89726;-56
2022/12/02 03:07:23;;;;;;;81.47;58.45;;;15.00;64.40;;;;;;4991192;28;89612;-55
2022/12/02 03:09:49;;;;;;;81.93;58.28;;;15.00;64.60;;;;;;4991525;28;95555;-55
2022/12/02 03:12:16;;;;;;;83.03;58.80;;;15.00;64.60;;;;;;4994545;28;90267;-56
2022/12/02 03:14:43;;;;;;;82.38;58.88;;;15.00;64.60;;;;;;4983335;28;90331;-56
2022/12/02 03:17:09;;;;;;;82.13;58.58;;;15.00;64.50;;;;;;4983812;28;89407;-53
2022/12/02 03:19:36;;;;;;;82.32;58.08;;;15.00;64.40;;;;;;5011156;27;89514;-57
2022/12/02 03:22:02;;;;;;;82.15;58.63;;;15.00;64.40;;;;;;4983222;28;89917;-55
2022/12/02 03:24:30;;;;;;;83.28;57.95;;;15.00;64.30;;;;;;4993076;28;90839;-55
2022/12/02 03:26:56;;;;;;;82.47;58.75;;;15.00;64.30;;;;;;4982182;28;91893;-54
2022/12/02 03:29:22;;;;;;;79.97;57.47;;;15.00;64.10;;;;;;4993586;28;94667;-56
2022/12/02 03:31:48;;;;;;;81.85;58.08;;;15.00;64.10;;;;;;4978445;28;90889;-56
2022/12/02 03:34:14;;;;;;;80.68;58.10;;;15.00;64.30;;;;;;4993610;28;90859;-56
2022/12/02 03:36:40;;;;;;;80.70;57.90;;;15.00;64.20;;;;;;4995255;28;90251;-54
2022/12/02 03:39:07;;;;;;;81.88;57.65;;;15.00;64.30;;;;;;4993487;28;89842;-57
2022/12/02 03:41:33;;;;;;;81.82;57.78;;;15.00;64.00;;;;;;4991820;28;89537;-54
2022/12/02 03:43:58;;;;;;;80.68;57.95;;;14.90;64.20;;;;;;4995375;28;89600;-54
2022/12/02 03:46:26;;;;;;;78.15;57.38;;;14.90;64.20;;;;;;4996081;28;89539;-55
2022/12/02 03:48:53;;;;;;;81.47;57.72;;;14.90;64.20;;;;;;4986531;28;93023;-55
2022/12/02 03:51:18;;;;;;;79.32;57.65;;;14.90;64.30;;;;;;4984361;28;90074;-54
2022/12/02 03:53:44;;;;;;;81.28;58.15;;;14.90;64.20;;;;;;4981979;28;90113;-54
2022/12/02 03:56:11;;;;;;;80.57;57.28;;;14.90;64.20;;;;;;4985146;28;90365;-55
2022/12/02 03:58:45;;;;;;;79.55;57.35;;;14.80;64.30;;;;;;4984628;28;91199;-56
2022/12/02 04:01:12;;;;;;;80.65;57.58;;;14.90;64.30;;;;;;4985696;28;90517;-56
2022/12/02 04:03:37;;;;;;;77.47;56.97;;;14.90;64.20;;;;;;4984678;28;90116;-55
2022/12/02 04:06:03;;;;;;;79.75;57.67;;;14.90;64.20;;;;;;4985251;28;92319;-54
2022/12/02 04:08:29;;;;;;;80.93;58.00;;;14.90;64.20;;;;;;4984164;28;91233;-52
2022/12/02 04:10:55;;;;;;;80.13;57.80;;;14.80;64.20;;;;;;4986805;28;90272;-56
2022/12/02 04:13:20;;;;;;;79.22;57.58;;;14.80;64.20;;;;;;4974642;28;95985;-52
2022/12/02 04:15:46;;;;;;;79.70;57.92;;;14.80;64.30;;;;;;4988596;28;91149;-54
2022/12/02 04:18:12;;;;;;;81.80;58.08;;;14.80;63.90;;;;;;4990109;28;90070;-51
2022/12/02 04:20:37;;;;;;;79.47;57.30;;;14.80;64.00;;;;;;4990030;28;91514;-56
2022/12/02 04:23:03;;;;;;;80.22;57.38;;;14.80;63.80;;;;;;4987426;28;91483;-56
2022/12/02 04:25:29;;;;;;;79.95;58.13;;;14.80;64.10;;;;;;4983512;28;90059;-56
2022/12/02 04:27:54;;;;;;;81.57;58.47;;;14.80;64.00;;;;;;4984575;28;90184;-55
2022/12/02 04:30:20;;;;;;;82.32;58.72;;;14.80;64.00;;;;;;4980549;27;88532;-56
2022/12/02 04:32:46;;;;;;;81.32;58.10;;;14.80;64.20;;;;;;4980472;28;89729;-56
2022/12/02 04:35:11;;;;;;;79.88;57.60;;;14.80;64.10;;;;;;4984587;28;95334;-55
2022/12/02 04:37:37;;;;;;;82.32;58.80;;;14.80;64.00;;;;;;4984147;28;91123;-56
2022/12/02 04:40:04;;;;;;;81.00;58.15;;;14.80;64.20;;;;;;4983985;28;93274;-57
2022/12/02 04:42:29;;;;;;;80.03;57.05;;;14.80;64.00;;;;;;4988369;27;89934;-56
2022/12/02 04:44:55;;;;;;;80.75;58.05;;;14.80;64.00;;;;;;4979192;28;95419;-56
2022/12/02 04:47:21;;;;;;;83.55;59.17;;;14.70;63.90;;;;;;4990165;28;90693;-55
2022/12/02 04:49:46;;;;;;;81.10;57.83;;;14.70;64.00;;;;;;4985498;28;90330;-53
2022/12/02 04:52:12;;;;;;;79.32;57.42;;;14.70;64.00;;;;;;4990077;28;91114;-55
2022/12/02 04:54:38;;;;;;;78.70;57.92;;;14.70;63.90;;;;;;4981615;28;91308;-56
2022/12/02 04:57:03;;;;;;;79.57;57.75;;;14.70;64.00;;;;;;4985922;28;90089;-55
2022/12/02 04:59:29;;;;;;;82.95;58.90;;;14.70;64.00;;;;;;4987467;28;91129;-54
2022/12/02 05:01:54;;;;;;;79.72;57.60;;;14.70;64.10;;;;;;4988518;28;90260;-54
2022/12/02 05:04:20;;;;;;;80.50;57.90;;;14.70;63.80;;;;;;4987324;28;89696;-56
2022/12/02 05:06:46;;;;;;;79.15;57.15;;;14.70;64.00;;;;;;4987148;28;91001;-54
2022/12/02 05:09:11;;;;;;;80.70;57.97;;;14.70;63.90;;;;;;4969465;28;92092;-54
2022/12/02 05:11:37;;;;;;;80.32;57.22;;;14.70;63.90;;;;;;4983534;28;89845;-56
2022/12/02 05:14:02;;;;;;;81.05;57.42;;;14.70;64.00;;;;;;4986844;28;94061;-53
2022/12/02 05:16:28;;;;;;;81.35;58.25;;;14.60;63.90;;;;;;4974845;28;90117;-55
2022/12/02 05:18:54;;;;;;;84.35;58.45;;;14.60;64.00;;;;;;4988330;28;89721;-56
2022/12/02 05:21:19;;;;;;;79.75;57.97;;;14.60;64.00;;;;;;4981332;28;89950;-55
2022/12/02 05:23:45;;;;;;;81.38;58.08;;;14.60;63.80;;;;;;4989381;28;89651;-55
2022/12/02 05:26:11;;;;;;;84.15;57.67;;;14.60;63.90;;;;;;4979426;28;90981;-56
2022/12/02 05:28:36;;;;;;;79.05;57.35;;;14.60;63.90;;;;;;4991222;28;94255;-55
2022/12/02 05:31:02;;;;;;;80.05;58.13;;;14.60;63.90;;;;;;4979806;28;91319;-55
2022/12/02 05:33:28;;;;;;;82.68;58.17;;;14.60;63.90;;;;;;4989175;28;89677;-57
2022/12/02 05:35:54;;;;;;;80.35;57.00;;;14.60;63.90;;;;;;4976684;28;89951;-56
2022/12/02 05:38:20;;;;;;;80.90;57.30;;;14.60;63.90;;;;;;4992655;28;89572;-56
2022/12/02 05:40:46;;;;;;;80.20;58.10;;;14.60;63.90;;;;;;4980285;28;89800;-55
2022/12/02 05:43:20;;;;;;;81.13;57.55;;;14.60;64.00;;;;;;4991280;28;89988;-56
2022/12/02 05:45:47;;;;;;;80.10;57.72;;;14.60;63.90;;;;;;4995012;28;89535;-54
2022/12/02 05:48:15;;;;;;;81.50;57.75;;;14.60;63.70;;;;;;4984968;28;90401;-56
2022/12/02 05:50:42;;;;;;;86.60;57.90;;;14.60;63.90;;;;;;4995643;28;90445;-56
2022/12/02 05:53:18;;;;;;;81.65;58.20;;;14.60;63.90;;;;;;4990655;28;90435;-55
2022/12/02 05:55:43;;;;;;;84.03;58.20;;;14.60;64.00;;;;;;4983516;28;89848;-56
2022/12/02 05:58:11;;;;;;;81.10;58.15;;;14.50;63.80;;;;;;4996035;28;89290;-55
2022/12/02 06:00:36;;;;;;;84.07;57.88;;;14.60;63.90;;;;;;4992858;28;89709;-52
2022/12/02 06:03:07;;;;;;;80.85;58.03;;;14.60;63.80;;;;;;4976980;28;90369;-53
2022/12/02 06:05:39;;;;;;;81.40;57.43;;;14.60;63.70;;;;;;4997427;28;90664;-55
2022/12/02 06:08:29;;;;;;;84.15;59.13;;;14.50;63.80;;;;;;4994580;28;89141;-56
2022/12/02 06:11:01;;;;;;;82.68;57.95;;;14.50;64.10;;;;;;4986239;28;89922;-55
2022/12/02 06:13:31;;;;;;;81.68;58.25;;;14.50;63.90;;;;;;4986829;28;90613;-56
2022/12/02 06:15:58;;;;;;;89.20;59.80;;;14.50;64.40;;;;;;4988349;28;91053;-57
2022/12/02 06:18:31;;;;;;;88.80;59.45;;;14.50;64.10;;;;;;4992364;28;90649;-57
2022/12/02 06:21:00;;;;;;;84.07;59.05;;;14.50;64.30;;;;;;4994597;28;90348;-55
2022/12/02 06:23:28;;;;;;;87.10;59.13;;;14.50;64.10;;;;;;4993339;28;89780;-56
2022/12/02 06:25:55;;;;;;;88.00;58.92;;;14.50;64.10;;;;;;4985008;28;90504;-56
2022/12/02 06:28:35;;;;;;;88.47;58.95;;;14.50;64.50;;;;;;4985116;28;93446;-55
2022/12/02 06:31:12;;;;;;;86.07;58.80;;;14.50;64.70;;;;;;4988383;28;90984;-56
2022/12/02 06:33:39;;;;;;;88.35;58.92;;;14.50;64.60;;;;;;4989425;28;89323;-56
2022/12/02 06:36:17;;;;;;;86.30;59.05;;;14.50;64.60;;;;;;4987755;28;89774;-56
2022/12/02 06:38:49;;;;;;;88.75;58.50;;;14.50;65.10;;;;;;4991736;28;89745;-56
2022/12/02 06:41:28;;;;;;;87.78;58.90;;;14.50;65.00;;;;;;4991199;28;90156;-56
2022/12/02 06:46:45;;;;;;;84.90;59.33;;;14.40;65.10;;;;;;4989083;28;90531;-56
2022/12/02 06:49:19;;;;;;;91.40;60.50;;;14.40;65.20;;;;;;4988136;28;91834;-55
2022/12/02 06:51:45;;;;;;;84.82;58.90;;;14.40;65.20;;;;;;4983732;28;89395;-55
2022/12/02 06:54:22;;;;;;;87.05;59.40;;;14.40;66.00;;;;;;4992688;28;89610;-55
2022/12/02 06:56:49;;;;;;;91.05;60.35;;;14.40;65.30;;;;;;4989969;28;90476;-54
2022/12/02 06:59:20;;;;;;;91.85;59.67;;;14.40;65.30;;;;;;4993628;28;89830;-54
2022/12/02 07:01:45;;;;;;;87.63;60.28;;;14.40;65.30;;;;;;4982728;28;91287;-61
2022/12/02 07:04:44;;;;;;;85.95;59.40;;;14.40;65.00;;;;;;4991475;28;92713;-56
2022/12/02 07:07:22;;;;;;;86.68;60.50;;;14.40;65.00;;;;;;4986818;28;91481;-51
2022/12/02 07:10:04;;;;;;;85.25;59.50;;;14.40;64.90;;;;;;4981998;28;90758;-54
2022/12/02 07:12:35;;;;;;;85.57;60.50;;;14.30;65.00;;;;;;4974793;28;89688;-55
2022/12/02 07:15:15;;;;;;;90.18;61.75;;;14.40;64.90;;;;;;4985970;28;89780;-55
2022/12/02 07:17:43;;;;;;;85.75;59.60;;;14.30;64.70;;;;;;4997416;27;89976;-54
2022/12/02 07:20:10;;;;;;;88.28;59.75;;;14.20;65.00;;;;;;4977305;28;91163;-56
2022/12/02 07:22:44;;;;;;;88.45;60.38;;;14.30;65.00;;;;;;4986783;28;89714;-56
2022/12/02 07:25:19;;;;;;;86.93;60.50;;;14.30;64.80;;;;;;4989695;28;88589;-56
2022/12/02 07:27:48;;;;;;;89.90;60.17;;;14.30;64.80;;;;;;4985062;28;90733;-55
2022/12/02 07:30:24;;;;;;;90.78;61.03;;;14.20;64.70;;;;;;4981502;28;91709;-56
2022/12/02 07:32:50;;;;;;;91.50;61.38;;;14.20;64.80;;;;;;4994022;28;92016;-56
2022/12/02 07:35:16;;;;;;;90.13;60.50;;;14.20;64.40;;;;;;4976609;28;91563;-53
2022/12/02 07:37:42;;;;;;;91.05;61.13;;;14.10;64.90;;;;;;4990114;28;90772;-56
2022/12/02 07:40:08;;;;;;;91.45;59.03;;;14.10;65.20;;;;;;4976253;28;90448;-53
2022/12/02 07:42:33;;;;;;;88.68;59.47;;;14.00;66.00;;;;;;4986271;28;90097;-54
2022/12/02 07:44:59;;;;;;;93.80;62.45;;;14.10;66.10;;;;;;4989209;28;90962;-53
2022/12/02 07:47:24;;;;;;;97.80;62.40;;;14.10;65.90;;;;;;4988508;28;89723;-54
2022/12/02 07:49:50;;;;;;;100.40;62.22;;;14.10;65.70;;;;;;4988514;28;89394;-50
2022/12/02 07:52:16;;;;;;;97.10;62.42;;;14.10;65.60;;;;;;4989631;28;89752;-53
2022/12/02 07:54:41;;;;;;;92.93;62.75;;;14.10;65.40;;;;;;4987157;28;89827;-55
2022/12/02 07:57:07;;;;;;;92.25;61.95;;;14.00;65.50;;;;;;4987883;28;91063;-56
2022/12/02 07:59:32;;;;;;;96.75;61.72;;;14.00;65.70;;;;;;4986051;28;90345;-56
2022/12/02 08:01:58;;;;;;;93.30;62.03;;;14.00;65.90;;;;;;4984844;28;89739;-56
2022/12/02 08:04:24;;;;;;;93.55;62.33;;;14.00;66.00;;;;;;4997917;28;89577;-56
2022/12/02 08:06:49;;;;;;;101.30;61.25;;;14.10;66.00;;;;;;4983560;28;89842;-57
2022/12/02 08:09:15;;;;;;;96.93;60.33;;;14.10;66.60;;;;;;4994827;28;90657;-55
2022/12/02 08:11:41;;;;;;;97.78;60.92;;;14.20;66.70;;;;;;4995518;28;90757;-55
2022/12/02 08:14:06;;;;;;;98.20;61.97;;;14.10;66.70;;;;;;4981411;28;89349;-52
2022/12/02 08:16:32;;;;;;;98.97;62.00;;;14.20;66.20;;;;;;4984864;28;90369;-56
2022/12/02 08:19:00;;;;;;;97.45;63.20;;;14.40;65.50;;;;;;4985042;28;89850;-57
2022/12/02 08:21:26;;;;;;;105.65;63.58;;;14.50;64.90;;;;;;4988069;28;91930;-58
2022/12/02 08:23:52;;;;;;;98.47;62.83;;;14.60;64.60;;;;;;4988183;28;90734;-57
2022/12/02 08:26:17;;;;;;;98.32;63.40;;;14.70;64.80;;;;;;4973203;28;89996;-57
2022/12/02 08:28:43;;;;;;;95.03;62.70;;;14.70;64.70;;;;;;4987816;28;89941;-57
2022/12/02 08:31:09;;;;;;;101.72;64.10;;;14.70;64.70;;;;;;4978172;28;90592;-57
2022/12/02 08:33:35;;;;;;;95.22;64.18;;;14.70;64.60;;;;;;4978676;28;92791;-57
2022/12/02 08:36:00;;;;;;;100.53;62.33;;;14.70;65.00;;;;;;4987636;28;90742;-58
2022/12/02 08:38:26;;;;;;;99.32;63.55;;;14.70;65.10;;;;;;4979334;28;90915;-54
2022/12/02 08:40:52;;;;;;;97.72;63.25;;;14.70;64.90;;;;;;4979658;28;90281;-56
2022/12/02 08:43:17;;;;;;;98.65;63.13;;;14.80;64.90;;;;;;4985591;28;89549;-55
2022/12/02 08:45:43;;;;;;;103.45;63.20;;;14.80;64.80;;;;;;4986790;28;92911;-57
2022/12/02 08:48:09;;;;;;;94.15;62.42;;;14.80;64.70;;;;;;4989138;28;90787;-56
2022/12/02 08:50:34;;;;;;;101.07;63.58;;;14.90;64.50;;;;;;4992438;28;89869;-56
2022/12/02 08:53:00;;;;;;;94.63;63.08;;;14.90;64.60;;;;;;4990932;28;89376;-57
2022/12/02 08:55:26;;;;;;;97.32;63.80;;;14.80;64.50;;;;;;4989499;28;90809;-57
2022/12/02 08:57:52;;;;;;;95.25;63.30;;;14.90;64.40;;;;;;4987680;28;89821;-57
2022/12/02 09:00:18;;;;;;;95.93;63.42;;;14.90;64.30;;;;;;4991417;28;90996;-55
2022/12/02 09:02:43;;;;;;;93.28;61.95;;;14.90;64.30;;;;;;4980616;28;89496;-57
2022/12/02 09:05:09;;;;;;;95.55;62.72;;;14.90;64.50;;;;;;4980313;28;91570;-56
2022/12/02 09:07:35;;;;;;;94.88;63.08;;;14.90;64.50;;;;;;4962739;28;90546;-53
2022/12/02 09:10:00;;;;;;;94.47;62.60;;;14.80;64.70;;;;;;4981721;28;90793;-55
2022/12/02 09:12:26;;;;;;;95.72;63.05;;;15.00;64.70;;;;;;4976332;28;92715;-54
2022/12/02 09:14:53;;;;;;;103.60;65.05;;;15.10;64.60;;;;;;4991959;28;91144;-57
2022/12/02 09:17:18;;;;;;;102.50;63.25;;;15.10;64.70;;;;;;4983827;28;90016;-57
2022/12/02 09:19:44;;;;;;;95.43;63.70;;;15.20;64.50;;;;;;4974993;28;90648;-54
2022/12/02 09:22:10;;;;;;;96.88;63.65;;;15.10;64.30;;;;;;4989423;28;90577;-53
2022/12/02 09:24:35;;;;;;;97.90;63.40;;;15.10;64.50;;;;;;4992666;28;89868;-52
2022/12/02 09:27:01;;;;;;;98.50;63.15;;;15.10;64.30;;;;;;4991494;28;89789;-52
2022/12/02 09:29:26;;;;;;;97.20;62.47;;;15.10;64.10;;;;;;4994235;28;89853;-52
2022/12/02 09:31:52;;;;;;;100.28;65.22;;;15.10;64.30;;;;;;4988161;28;90344;-47
2022/12/02 09:34:18;;;;;;;106.57;67.82;;;15.10;64.80;;;;;;4993413;28;90610;-57
2022/12/02 09:36:44;;;;;;;101.25;65.85;;;15.20;65.00;;;;;;4980166;28;91805;-53
2022/12/02 09:39:10;;;;;;;103.90;66.30;;;15.30;64.70;;;;;;4981376;28;90701;-54
2022/12/02 09:41:36;;;;;;;101.43;66.55;;;15.40;64.40;;;;;;4988946;28;91814;-56
2022/12/02 09:44:03;;;;;;;101.55;65.25;;;15.40;64.70;;;;;;4980739;28;90380;-58
2022/12/02 09:46:30;;;;;;;100.57;65.75;;;15.50;64.50;;;;;;4976067;28;92147;-53
2022/12/02 09:48:56;;;;;;;100.95;65.00;;;15.50;64.50;;;;;;4984041;28;90064;-53
2022/12/02 09:51:22;;;;;;;104.03;66.03;;;15.50;64.30;;;;;;4991928;28;89223;-52
2022/12/02 09:53:48;;;;;;;103.13;65.75;;;15.30;64.80;;;;;;4985383;28;90280;-53
2022/12/02 09:56:18;;;;;;;98.22;65.30;;;15.30;64.70;;;;;;4984510;28;90129;-51
2022/12/02 09:58:46;;;;;;;99.30;65.88;;;15.20;65.10;;;;;;4984960;28;90783;-52
2022/12/02 10:01:12;;;;;;;101.10;66.55;;;15.30;64.80;;;;;;4981042;28;90124;-54
2022/12/02 10:03:38;;;;;;;108.43;66.53;;;15.40;64.40;;;;;;4981886;28;90398;-52
2022/12/02 10:06:08;;;;;;;100.90;65.38;;;15.40;64.40;;;;;;4978932;28;89796;-54
2022/12/02 10:08:35;;;;;;;105.95;66.45;;;15.30;64.30;;;;;;4982529;28;92224;-51
2022/12/02 10:11:00;;;;;;;102.20;65.45;;;15.40;64.50;;;;;;4978938;28;91788;-51
2022/12/02 10:13:27;;;;;;;100.72;65.68;;;15.30;64.30;;;;;;4984883;28;94085;-50
2022/12/02 10:15:53;;;;;;;101.82;66.47;;;15.30;64.50;;;;;;4984248;28;89788;-50
2022/12/02 10:18:25;;;;;;;106.72;66.43;;;15.30;64.50;;;;;;4992540;28;89420;-53
2022/12/02 10:20:51;;;;;;;101.13;65.32;;;15.30;64.40;;;;;;4995315;28;89635;-48
2022/12/02 10:23:20;;;;;;;101.05;65.40;;;15.30;64.60;;;;;;4986686;28;90580;-52
2022/12/02 10:26:06;;;;;;;97.40;65.35;;;15.30;64.60;;;;;;4976765;27;90245;-54
2022/12/02 10:28:34;;;;;;;101.63;65.00;;;15.30;65.00;;;;;;5005581;28;91091;-50
2022/12/02 10:31:10;;;;;;;98.50;63.35;;;15.30;65.00;;;;;;4982673;28;90044;-50
2022/12/02 10:33:43;;;;;;;101.53;64.40;;;15.30;65.40;;;;;;4985337;28;91136;-54
2022/12/02 10:36:09;;;;;;;96.15;64.15;;;15.30;65.30;;;;;;4987567;28;90127;-56
2022/12/02 10:38:38;;;;;;;100.75;64.47;;;15.30;65.30;;;;;;4986358;28;95171;-52
2022/12/02 10:41:23;;;;;;;99.22;64.28;;;15.40;65.40;;;;;;4984575;28;89485;-57
2022/12/02 10:43:52;;;;;;;97.47;64.25;;;15.40;65.50;;;;;;4989476;28;89657;-55
2022/12/02 10:46:19;;;;;;;100.07;63.53;;;15.50;65.50;;;;;;4980790;28;90917;-53
2022/12/02 10:48:46;;;;;;;100.97;63.83;;;15.70;64.10;;;;;;4994407;28;90994;-53
2022/12/02 10:51:17;;;;;;;100.03;63.15;;;15.90;63.30;;;;;;4999477;28;89484;-52
2022/12/02 10:53:44;;;;;;;96.55;63.10;;;16.00;62.70;;;;;;4986172;28;89733;-54
2022/12/02 10:56:17;;;;;;;102.25;63.60;;;16.10;62.30;;;;;;4984107;28;91555;-54
2022/12/02 10:58:43;;;;;;;103.32;64.25;;;16.20;62.00;;;;;;4989419;27;89542;-50
2022/12/02 11:01:11;;;;;;;100.95;64.30;;;16.30;61.80;;;;;;4983173;28;90243;-49
2022/12/02 11:03:38;;;;;;;99.35;63.70;;;16.20;61.40;;;;;;4993672;28;89830;-50
2022/12/02 11:06:06;;;;;;;101.63;64.45;;;16.00;62.40;;;;;;4985059;28;89587;-52
2022/12/02 11:08:31;;;;;;;100.57;64.07;;;15.80;64.70;;;;;;4992317;28;89864;-53
2022/12/02 11:11:23;;;;;;;97.78;63.08;;;15.70;65.60;;;;;;4983353;28;94885;-55
2022/12/02 11:13:53;;;;;;;97.60;65.22;;;15.70;65.50;;;;;;4993919;28;92101;-52
2022/12/02 11:16:28;;;;;;;97.40;63.00;;;15.60;65.40;;;;;;4988944;28;90774;-54
2022/12/02 11:19:21;;;;;;;95.90;64.03;;;15.70;65.00;;;;;;4984982;28;90117;-56
2022/12/02 11:21:47;;;;;;;96.25;63.17;;;15.90;65.30;;;;;;4983891;28;91196;-47
2022/12/02 11:24:22;;;;;;;96.90;62.22;;;16.00;66.10;;;;;;4990095;28;90677;-49
2022/12/02 11:27:00;;;;;;;99.65;63.75;;;16.00;65.00;;;;;;4985702;28;90380;-47
2022/12/02 11:29:26;;;;;;;96.57;62.75;;;15.90;64.10;;;;;;4991214;28;90421;-50
2022/12/02 11:32:14;;;;;;;94.68;62.70;;;15.80;64.80;;;;;;4979090;28;92429;-52
2022/12/02 11:34:44;;;;;;;98.40;62.90;;;15.70;64.60;;;;;;4991158;28;90248;-48
2022/12/02 11:37:34;;;;;;;94.88;63.58;;;15.70;66.20;;;;;;4980445;28;89927;-54
2022/12/02 11:40:05;;;;;;;98.22;63.33;;;15.80;66.00;;;;;;4989978;28;93003;-49
2022/12/02 11:42:32;;;;;;;93.32;63.28;;;16.00;65.60;;;;;;4988352;28;89903;-51
2022/12/02 11:45:15;;;;;;;95.93;64.00;;;16.00;65.00;;;;;;4977041;28;90812;-51
2022/12/02 11:47:56;;;;;;;94.80;62.28;;;16.00;64.60;;;;;;4988308;28;91619;-53
2022/12/02 11:50:28;;;;;;;95.75;62.88;;;16.00;63.90;;;;;;4993648;28;92244;-52
2022/12/02 11:53:00;;;;;;;98.35;62.97;;;16.10;63.50;;;;;;4976204;28;90018;-50
2022/12/02 11:55:40;;;;;;;95.30;61.05;;;16.10;63.00;;;;;;4986991;28;90505;-54
2022/12/02 11:58:33;;;;;;;95.25;60.20;;;16.10;62.90;;;;;;4984632;28;90398;-52
2022/12/02 12:01:02;;;;;;;91.07;60.58;;;16.20;62.90;;;;;;4986027;28;90969;-48
2022/12/02 12:03:28;;;;;;;94.80;61.95;;;16.00;63.10;;;;;;4990687;28;89624;-58
2022/12/02 12:06:23;;;;;;;96.28;60.70;;;16.00;63.20;;;;;;4989438;28;93438;-51
2022/12/02 12:08:53;;;;;;;91.25;60.92;;;15.90;63.80;;;;;;4980862;28;91080;-54
2022/12/02 12:11:34;;;;;;;92.85;61.85;;;15.90;64.60;;;;;;4986197;28;91128;-56
2022/12/02 12:13:59;;;;;;;94.03;61.42;;;15.80;65.20;;;;;;4980614;28;89865;-57
2022/12/02 12:16:27;;;;;;;91.90;60.63;;;15.80;65.50;;;;;;4992320;28;91080;-54
2022/12/02 12:18:53;;;;;;;92.15;60.42;;;15.80;65.90;;;;;;4981704;28;90556;-51
2022/12/02 12:21:31;;;;;;;91.25;61.13;;;15.80;66.40;;;;;;4988423;28;91406;-47
2022/12/02 12:24:25;;;;;;;89.50;60.33;;;15.80;67.00;;;;;;4987355;28;90835;-51
2022/12/02 12:27:02;;;;;;;89.90;59.05;;;15.80;66.70;;;;;;4991044;28;90220;-49
2022/12/02 12:29:39;;;;;;;88.95;60.53;;;15.80;67.00;;;;;;4988714;28;90122;-61
2022/12/02 12:32:06;;;;;;;86.90;59.92;;;15.80;66.90;;;;;;4990143;28;91246;-54
2022/12/02 12:34:32;;;;;;;86.72;58.72;;;15.90;66.70;;;;;;4985424;28;96005;-51
2022/12/02 12:36:58;;;;;;;89.82;58.97;;;15.90;67.10;;;;;;4986804;28;91347;-54